Time;durP1;ratioP1;P1;durP2;ratioP2;P2;SDS_P1;SDS_P2;PMS_P1;PMS_P2;Temp;Humidity;BMP_temperature;BMP_pressure;BME280_temperature;BME280_humidity;BME280_pressure;Samples;Min_cycle;Max_cycle;Signal;HPM_P1;HPM_P2
2022/04/10 00:01:37;;;;;;;;;;;3.50;99.90;;;;;;2602960;54;20485;31
2022/04/10 00:04:18;;;;;;;;;;;3.50;99.90;;;;;;2602817;54;19990;31
2022/04/10 00:06:55;;;;;;;;;;;3.50;99.90;;;;;;2603345;54;20802;31
2022/04/10 00:09:30;;;;;;;;;;;3.50;99.90;;;;;;2621806;46;20780;31
2022/04/10 00:12:04;;;;;;;;;;;3.50;99.90;;;;;;2619059;46;19949;31
2022/04/10 00:14:38;;;;;;;;;;;3.50;99.90;;;;;;2603128;54;20766;31
2022/04/10 00:17:14;;;;;;;;;;;3.50;99.90;;;;;;2621691;46;19934;31
2022/04/10 00:19:50;;;;;;;;;;;3.50;99.90;;;;;;2701390;39;21377;31
2022/04/10 00:22:28;;;;;;;;;;;3.50;99.90;;;;;;2621630;46;20465;31
2022/04/10 00:25:03;;;;;;;;;;;3.40;99.90;;;;;;2621497;46;19946;31
2022/04/10 00:27:40;;;;;;;;;;;3.40;99.90;;;;;;2603020;54;19942;31
2022/04/10 00:30:17;;;;;;;;;;;3.40;99.90;;;;;;2602674;54;20764;31
2022/04/10 00:32:52;;;;;;;;;;;3.40;99.90;;;;;;2621699;46;20739;31
2022/04/10 00:35:28;;;;;;;;;;;3.40;99.90;;;;;;2602929;54;19946;31
2022/04/10 00:38:06;;;;;;;;;;;3.40;99.90;;;;;;2621383;46;21399;31
2022/04/10 00:40:41;;;;;;;;;;;3.30;99.90;;;;;;2602942;54;19941;31
2022/04/10 00:43:15;;;;;;;;;;;3.40;99.90;;;;;;2621433;46;19938;31
2022/04/10 00:45:49;;;;;;;;;;;3.40;99.90;;;;;;2621244;46;21055;31
2022/04/10 00:48:23;;;;;;;;;;;3.40;99.90;;;;;;2602956;54;20760;31
2022/04/10 00:53:51;;;;;;;;;;;3.30;99.90;;;;;;2602860;54;19939;31
2022/04/10 00:56:25;;;;;;;;;;;3.30;99.90;;;;;;2602865;54;19934;31
2022/04/10 00:59:00;;;;;;;;;;;3.30;99.90;;;;;;2602871;54;19942;31
2022/04/10 01:01:38;;;;;;;;;;;3.30;99.90;;;;;;2621557;46;20769;31
2022/04/10 01:04:32;;;;;;;;;;;3.30;99.90;;;;;;2602985;54;19934;31
2022/04/10 01:07:07;;;;;;;;;;;3.30;99.90;;;;;;2621124;46;20743;31
2022/04/10 01:09:50;;;;;;;;;;;3.30;99.90;;;;;;2602743;54;19942;31
2022/04/10 01:12:28;;;;;;;;;;;3.30;99.90;;;;;;2621664;46;20745;31
2022/04/10 01:15:06;;;;;;;;;;;3.20;99.90;;;;;;2602635;54;19935;31
2022/04/10 01:17:44;;;;;;;;;;;3.20;99.90;;;;;;2612960;47;19935;31
2022/04/10 01:20:21;;;;;;;;;;;3.20;99.90;;;;;;2602119;54;19939;31
2022/04/10 01:23:02;;;;;;;;;;;3.20;99.90;;;;;;2602154;54;20013;31
2022/04/10 01:25:37;;;;;;;;;;;3.20;99.90;;;;;;2601657;54;19942;31
2022/04/10 01:28:15;;;;;;;;;;;3.10;99.90;;;;;;2602251;54;20785;31
2022/04/10 01:30:49;;;;;;;;;;;3.20;99.90;;;;;;2602881;54;19935;31
2022/04/10 01:33:24;;;;;;;;;;;3.20;99.90;;;;;;2602703;54;19935;31
2022/04/10 01:35:59;;;;;;;;;;;3.10;99.90;;;;;;2621407;47;20038;31
2022/04/10 01:38:41;;;;;;;;;;;3.10;99.90;;;;;;2602663;54;19946;31
2022/04/10 01:41:15;;;;;;;;;;;3.10;99.90;;;;;;2601819;54;19965;31
2022/04/10 01:43:52;;;;;;;;;;;3.10;99.90;;;;;;2602065;54;20490;31
2022/04/10 01:46:28;;;;;;;;;;;3.10;99.90;;;;;;2700217;39;20422;31
2022/04/10 01:49:02;;;;;;;;;;;3.10;99.90;;;;;;2620438;47;20696;31
2022/04/10 01:51:37;;;;;;;;;;;3.10;99.90;;;;;;2601834;54;20461;31
2022/04/10 01:54:15;;;;;;;;;;;2.80;99.90;;;;;;2602465;54;19941;31
2022/04/10 01:56:50;;;;;;;;;;;3.10;99.90;;;;;;2621143;46;19946;31
2022/04/10 01:59:27;;;;;;;;;;;3.10;99.90;;;;;;2602571;54;19934;31
2022/04/10 02:02:02;;;;;;;;;;;3.10;99.90;;;;;;2602694;54;19957;31
2022/04/10 02:04:39;;;;;;;;;;;3.10;99.90;;;;;;2602754;54;19935;31
2022/04/10 02:07:15;;;;;;;;;;;3.10;99.90;;;;;;2620853;47;20771;31
2022/04/10 02:09:54;;;;;;;;;;;3.10;99.90;;;;;;2602719;54;20732;31
2022/04/10 02:12:32;;;;;;;;;;;3.10;99.90;;;;;;2602740;54;20755;31
2022/04/10 02:15:07;;;;;;;;;;;3.20;99.90;;;;;;2602780;54;20754;31
2022/04/10 02:17:45;;;;;;;;;;;3.20;99.90;;;;;;2620593;47;20766;31
2022/04/10 02:20:19;;;;;;;;;;;3.20;99.90;;;;;;2620505;47;20692;31
2022/04/10 02:22:55;;;;;;;;;;;3.20;99.90;;;;;;2602679;54;19946;31
2022/04/10 02:25:32;;;;;;;;;;;3.30;99.90;;;;;;2620713;47;20688;31
2022/04/10 02:28:16;;;;;;;;;;;3.30;99.90;;;;;;2622028;46;19942;31
2022/04/10 02:30:50;;;;;;;;;;;3.30;99.90;;;;;;2621985;46;19958;31
2022/04/10 02:33:28;;;;;;;;;;;3.40;99.90;;;;;;2622016;46;20753;31
2022/04/10 02:36:02;;;;;;;;;;;3.40;99.90;;;;;;2603473;54;20793;31
2022/04/10 02:38:37;;;;;;;;;;;3.40;99.90;;;;;;2622091;46;19994;31
2022/04/10 02:41:14;;;;;;;;;;;3.40;99.90;;;;;;2603369;54;20724;31
2022/04/10 02:43:51;;;;;;;;;;;3.40;99.90;;;;;;2622142;46;19941;31
2022/04/10 02:46:26;;;;;;;;;;;3.50;99.90;;;;;;2603322;54;21385;31
2022/04/10 02:49:08;;;;;;;;;;;3.50;99.90;;;;;;2701990;39;20377;31
2022/04/10 02:51:44;;;;;;;;;;;3.50;99.90;;;;;;2603287;54;19935;31
2022/04/10 02:54:19;;;;;;;;;;;3.50;99.90;;;;;;2622158;46;19958;31
2022/04/10 02:56:55;;;;;;;;;;;3.50;99.90;;;;;;2621446;46;19934;31
2022/04/10 02:59:39;;;;;;;;;;;3.50;99.90;;;;;;2603235;54;20727;31
2022/04/10 03:02:14;;;;;;;;;;;3.50;99.90;;;;;;2603396;54;22295;31
2022/04/10 03:04:51;;;;;;;;;;;3.50;99.90;;;;;;2701912;39;20412;31
2022/04/10 03:07:25;;;;;;;;;;;3.50;99.90;;;;;;2621865;46;20741;31
2022/04/10 03:10:00;;;;;;;;;;;3.50;99.90;;;;;;2603431;54;19970;31
2022/04/10 03:12:36;;;;;;;;;;;3.40;99.90;;;;;;2603327;54;19974;31
2022/04/10 03:15:15;;;;;;;;;;;3.40;99.90;;;;;;2603133;54;19939;31
2022/04/10 03:17:51;;;;;;;;;;;3.30;99.90;;;;;;2603174;54;19941;31
2022/04/10 03:20:27;;;;;;;;;;;3.30;99.90;;;;;;2701598;39;20397;31
2022/04/10 03:23:08;;;;;;;;;;;3.30;99.90;;;;;;2603345;54;19941;31
2022/04/10 03:25:43;;;;;;;;;;;3.30;99.90;;;;;;2604447;46;20008;31
2022/04/10 03:28:19;;;;;;;;;;;3.20;99.90;;;;;;2603287;54;19934;31
2022/04/10 03:30:57;;;;;;;;;;;3.10;99.90;;;;;;2603144;54;20815;31
2022/04/10 03:33:32;;;;;;;;;;;3.10;99.90;;;;;;2603050;54;19981;31
2022/04/10 03:36:08;;;;;;;;;;;3.10;99.90;;;;;;2621597;46;19934;31
2022/04/10 03:38:43;;;;;;;;;;;3.00;99.90;;;;;;2603111;54;19935;31
2022/04/10 03:41:21;;;;;;;;;;;3.00;99.90;;;;;;2716699;39;20429;31
2022/04/10 03:43:56;;;;;;;;;;;3.00;99.90;;;;;;2603103;54;20794;31
2022/04/10 03:46:35;;;;;;;;;;;3.00;99.90;;;;;;2720281;39;21252;31
2022/04/10 03:49:18;;;;;;;;;;;3.00;99.90;;;;;;2607654;46;19934;31
2022/04/10 03:51:53;;;;;;;;;;;3.00;99.90;;;;;;2603094;54;19996;31
2022/04/10 03:54:28;;;;;;;;;;;2.90;99.90;;;;;;2621268;46;19931;31
2022/04/10 03:57:04;;;;;;;;;;;2.90;99.90;;;;;;2602300;54;19930;31
2022/04/10 03:59:42;;;;;;;;;;;2.80;99.90;;;;;;2603260;54;20752;31
2022/04/10 04:02:22;;;;;;;;;;;2.80;99.90;;;;;;2602965;54;19934;31
2022/04/10 04:05:02;;;;;;;;;;;2.70;99.90;;;;;;2603119;54;20713;31
2022/04/10 04:07:41;;;;;;;;;;;2.70;99.90;;;;;;2605973;46;19947;31
2022/04/10 04:10:21;;;;;;;;;;;2.70;99.90;;;;;;2621753;46;20013;31
2022/04/10 04:12:58;;;;;;;;;;;2.60;99.90;;;;;;2603067;54;20739;31
2022/04/10 04:15:33;;;;;;;;;;;2.60;99.90;;;;;;2602881;54;19950;31
2022/04/10 04:18:08;;;;;;;;;;;2.60;99.90;;;;;;2602926;54;19961;31
2022/04/10 04:20:48;;;;;;;;;;;2.60;99.90;;;;;;2621594;46;20692;31
2022/04/10 04:23:23;;;;;;;;;;;2.60;99.90;;;;;;2621785;46;20773;31
2022/04/10 04:26:00;;;;;;;;;;;2.60;99.90;;;;;;2603170;54;19934;31
2022/04/10 04:28:37;;;;;;;;;;;2.60;99.90;;;;;;2603088;54;19943;31
2022/04/10 04:31:13;;;;;;;;;;;2.60;99.90;;;;;;2621545;46;20751;31
2022/04/10 04:33:47;;;;;;;;;;;2.60;99.90;;;;;;2621610;46;20682;31
2022/04/10 04:36:28;;;;;;;;;;;2.60;99.90;;;;;;2603079;54;20761;31
2022/04/10 04:39:05;;;;;;;;;;;2.70;99.90;;;;;;2714757;39;20472;31
2022/04/10 04:41:43;;;;;;;;;;;2.70;99.90;;;;;;2602354;54;20761;31
2022/04/10 04:44:20;;;;;;;;;;;2.70;99.90;;;;;;2621702;46;20719;31
2022/04/10 04:46:54;;;;;;;;;;;2.80;99.90;;;;;;2603059;54;20775;31
2022/04/10 04:49:30;;;;;;;;;;;2.80;99.90;;;;;;2601839;54;20520;31
2022/04/10 04:52:12;;;;;;;;;;;2.80;99.90;;;;;;2603017;54;20860;31
2022/04/10 04:54:47;;;;;;;;;;;2.90;99.90;;;;;;2603212;54;20799;31
2022/04/10 04:57:24;;;;;;;;;;;2.90;99.90;;;;;;2602851;54;19941;31
2022/04/10 04:59:59;;;;;;;;;;;3.00;99.90;;;;;;2602958;54;20650;31
2022/04/10 05:02:35;;;;;;;;;;;3.20;99.90;;;;;;2602749;54;20715;31
2022/04/10 05:05:11;;;;;;;;;;;3.30;99.90;;;;;;2602849;54;19950;31
2022/04/10 05:07:48;;;;;;;;;;;3.50;99.90;;;;;;2602855;54;20678;31
2022/04/10 05:10:26;;;;;;;;;;;3.60;99.90;;;;;;2701556;39;20394;31
2022/04/10 05:13:08;;;;;;;;;;;3.80;99.90;;;;;;2602027;54;20780;31
2022/04/10 05:15:43;;;;;;;;;;;3.90;99.90;;;;;;2602566;54;19957;31
2022/04/10 05:18:19;;;;;;;;;;;4.10;99.90;;;;;;2602796;54;19962;31
2022/04/10 05:20:56;;;;;;;;;;;4.20;99.90;;;;;;2701450;39;20459;31
2022/04/10 05:23:34;;;;;;;;;;;4.20;99.90;;;;;;2603045;54;19942;31
2022/04/10 05:26:21;;;;;;;;;;;4.90;99.90;;;;;;2603058;54;19942;31
2022/04/10 05:29:01;;;;;;;;;;;4.30;99.90;;;;;;2602857;54;20716;31
2022/04/10 05:31:37;;;;;;;;;;;4.30;99.90;;;;;;2602674;54;20751;31
2022/04/10 05:34:13;;;;;;;;;;;4.30;99.90;;;;;;2602656;54;19977;31
2022/04/10 05:36:47;;;;;;;;;;;4.30;99.90;;;;;;2621569;47;20782;31
2022/04/10 05:39:22;;;;;;;;;;;4.50;99.90;;;;;;2602707;54;19934;31
2022/04/10 05:42:01;;;;;;;;;;;4.50;99.90;;;;;;2602801;54;20770;31
2022/04/10 05:44:34;;;;;;;;;;;4.60;99.90;;;;;;2602760;54;21227;31
2022/04/10 05:47:12;;;;;;;;;;;4.50;99.90;;;;;;2602588;54;19934;31
2022/04/10 05:49:47;;;;;;;;;;;4.50;99.90;;;;;;2621465;47;19934;31
2022/04/10 05:52:22;;;;;;;;;;;4.40;99.90;;;;;;2602673;54;19953;31
2022/04/10 05:55:00;;;;;;;;;;;4.40;99.90;;;;;;2602542;54;20738;31
2022/04/10 05:57:40;;;;;;;;;;;4.30;99.90;;;;;;2602827;54;20780;31
2022/04/10 06:00:17;;;;;;;;;;;4.30;99.90;;;;;;2616017;47;19945;31
2022/04/10 06:03:05;;;;;;;;;;;4.40;99.90;;;;;;2701901;39;20418;31
2022/04/10 06:05:44;;;;;;;;;;;4.40;99.90;;;;;;2603543;54;19941;31
2022/04/10 06:08:40;;;;;;;;;;;4.50;99.90;;;;;;2603643;54;19935;31
2022/04/10 06:11:15;;;;;;;;;;;4.50;99.90;;;;;;2603727;54;19997;31
2022/04/10 06:13:56;;;;;;;;;;;4.50;99.90;;;;;;2622213;46;19935;31
2022/04/10 06:16:35;;;;;;;;;;;4.50;99.90;;;;;;2622198;46;20462;31
2022/04/10 06:19:11;;;;;;;;;;;4.50;99.90;;;;;;2622014;46;19942;31
2022/04/10 06:21:46;;;;;;;;;;;4.50;99.90;;;;;;2603265;54;20527;31
2022/04/10 06:24:22;;;;;;;;;;;4.50;99.90;;;;;;2621833;46;20471;31
2022/04/10 06:27:00;;;;;;;;;;;4.50;99.90;;;;;;2603284;54;20709;31
2022/04/10 06:29:40;;;;;;;;;;;4.50;99.90;;;;;;2603590;54;20772;31
2022/04/10 06:32:15;;;;;;;;;;;4.50;99.90;;;;;;2603390;54;20773;31
2022/04/10 06:34:54;;;;;;;;;;;4.60;99.90;;;;;;2602560;54;20740;31
2022/04/10 06:37:28;;;;;;;;;;;4.60;99.90;;;;;;2602556;54;19943;31
2022/04/10 06:40:05;;;;;;;;;;;4.60;99.90;;;;;;2603534;54;20762;31
2022/04/10 06:42:39;;;;;;;;;;;4.60;99.90;;;;;;2614480;46;19990;31
2022/04/10 06:45:36;;;;;;;;;;;4.60;99.90;;;;;;2603607;54;20759;31
2022/04/10 06:48:17;;;;;;;;;;;4.60;99.90;;;;;;2603383;54;20767;31
2022/04/10 06:50:56;;;;;;;;;;;4.70;99.90;;;;;;2621840;46;20466;31
2022/04/10 06:53:36;;;;;;;;;;;4.70;99.90;;;;;;2603541;54;19981;31
2022/04/10 06:56:11;;;;;;;;;;;4.70;99.90;;;;;;2603196;54;20760;31
2022/04/10 06:58:47;;;;;;;;;;;4.70;99.90;;;;;;2603331;54;20751;31
2022/04/10 07:01:26;;;;;;;;;;;4.60;99.90;;;;;;2603172;54;20768;31
2022/04/10 07:04:07;;;;;;;;;;;4.60;99.90;;;;;;2603389;54;20021;31
2022/04/10 07:06:46;;;;;;;;;;;4.60;99.90;;;;;;2603272;54;20820;31
2022/04/10 07:09:22;;;;;;;;;;;4.60;99.90;;;;;;2603354;54;19934;31
2022/04/10 07:12:06;;;;;;;;;;;4.70;99.90;;;;;;2603039;54;19941;31
2022/04/10 07:14:49;;;;;;;;;;;4.70;99.90;;;;;;2603425;54;20684;31
2022/04/10 07:17:26;;;;;;;;;;;4.70;99.90;;;;;;2603083;54;19972;31
2022/04/10 07:20:06;;;;;;;;;;;4.80;99.90;;;;;;2621771;46;20001;31
2022/04/10 07:25:33;;;;;;;;;;;5.00;99.90;;;;;;2621756;46;19935;31
2022/04/10 07:28:09;;;;;;;;;;;5.10;99.90;;;;;;2719898;39;21355;31
2022/04/10 07:30:51;;;;;;;;;;;5.10;99.90;;;;;;2603092;54;20786;31
2022/04/10 07:33:30;;;;;;;;;;;5.20;99.90;;;;;;2602393;54;19938;31
2022/04/10 07:36:12;;;;;;;;;;;5.20;99.90;;;;;;2602269;54;20009;31
2022/04/10 07:38:47;;;;;;;;;;;5.40;99.90;;;;;;2603132;54;20673;31
2022/04/10 07:41:28;;;;;;;;;;;5.60;99.90;;;;;;2602284;54;19942;31
2022/04/10 07:44:07;;;;;;;;;;;5.80;99.90;;;;;;2602550;54;20807;31
2022/04/10 07:49:36;;;;;;;;;;;6.10;99.90;;;;;;2621849;46;19934;31
2022/04/10 07:52:16;;;;;;;;;;;6.70;99.90;;;;;;2603140;54;21400;31
2022/04/10 07:55:08;;;;;;;;;;;7.00;99.90;;;;;;2603239;54;20639;31
2022/04/10 07:57:49;;;;;;;;;;;7.20;99.90;;;;;;2603025;54;20066;31
2022/04/10 08:00:25;;;;;;;;;;;7.40;99.90;;;;;;2621152;46;20685;31
2022/04/10 08:03:08;;;;;;;;;;;7.40;99.90;;;;;;2621558;46;19941;31
2022/04/10 08:06:07;;;;;;;;;;;7.40;99.90;;;;;;2603127;54;19935;31
2022/04/10 08:08:48;;;;;;;;;;;7.30;99.90;;;;;;2602820;54;20728;31
2022/04/10 08:11:28;;;;;;;;;;;7.30;99.90;;;;;;2621128;46;20747;31
2022/04/10 08:14:09;;;;;;;;;;;7.20;99.90;;;;;;2701893;39;20537;31
2022/04/10 08:16:44;;;;;;;;;;;7.10;99.90;;;;;;2602987;54;20753;31
2022/04/10 08:19:22;;;;;;;;;;;7.00;99.90;;;;;;2602147;54;20714;31
2022/04/10 08:22:01;;;;;;;;;;;7.00;99.90;;;;;;2603013;54;20640;31
2022/04/10 08:24:45;;;;;;;;;;;6.90;99.90;;;;;;2602375;54;19935;31
2022/04/10 08:27:32;;;;;;;;;;;6.80;99.90;;;;;;2602400;54;20803;31
2022/04/10 08:30:13;;;;;;;;;;;6.70;99.90;;;;;;2621568;46;20779;31
2022/04/10 08:35:27;;;;;;;;;;;6.50;99.90;;;;;;2602711;54;19939;31
2022/04/10 08:38:02;;;;;;;;;;;6.50;99.90;;;;;;2621307;46;19942;31
2022/04/10 08:40:40;;;;;;;;;;;6.60;99.90;;;;;;2773059;31;20501;31
2022/04/10 08:43:27;;;;;;;;;;;6.50;99.90;;;;;;2602847;54;19941;31
2022/04/10 08:46:04;;;;;;;;;;;6.50;99.90;;;;;;2602855;54;20640;31
2022/04/10 08:48:39;;;;;;;;;;;6.50;99.90;;;;;;2602847;54;20505;31
2022/04/10 08:51:15;;;;;;;;;;;6.50;99.90;;;;;;2621301;46;19935;31
2022/04/10 08:53:49;;;;;;;;;;;6.50;99.90;;;;;;2620814;46;20836;31
2022/04/10 08:59:18;;;;;;;;;;;6.50;99.90;;;;;;2602605;54;19941;31
2022/04/10 09:01:54;;;;;;;;;;;6.70;99.90;;;;;;2602741;54;20751;31
2022/04/10 09:04:29;;;;;;;;;;;7.20;99.90;;;;;;2602846;54;20857;31
2022/04/10 09:07:07;;;;;;;;;;;7.80;99.90;;;;;;2602869;54;20771;31
2022/04/10 09:09:48;;;;;;;;;;;8.20;99.90;;;;;;2602836;54;20724;31
2022/04/10 09:12:39;;;;;;;;;;;8.30;99.90;;;;;;2608091;46;20764;31
2022/04/10 09:15:18;;;;;;;;;;;8.40;99.90;;;;;;2621494;46;20734;31
2022/04/10 09:17:58;;;;;;;;;;;8.40;99.90;;;;;;2611246;46;19935;31
2022/04/10 09:20:34;;;;;;;;;;;8.40;99.90;;;;;;2601945;54;19949;31
2022/04/10 09:23:12;;;;;;;;;;;8.50;99.90;;;;;;2602147;54;19934;31
2022/04/10 09:25:49;;;;;;;;;;;8.60;99.90;;;;;;2602518;54;20767;31
2022/04/10 09:28:25;;;;;;;;;;;8.80;99.90;;;;;;2602719;54;20749;31
2022/04/10 09:31:03;;;;;;;;;;;8.80;99.90;;;;;;2602758;54;20066;31
2022/04/10 09:33:44;;;;;;;;;;;8.80;99.90;;;;;;2621365;47;20794;31
2022/04/10 09:36:21;;;;;;;;;;;8.70;99.90;;;;;;2621393;47;20720;31
2022/04/10 09:38:56;;;;;;;;;;;8.60;99.90;;;;;;2603600;54;20685;31
2022/04/10 09:41:30;;;;;;;;;;;8.60;99.90;;;;;;2621581;46;21751;31
2022/04/10 09:44:20;;;;;;;;;;;8.60;99.90;;;;;;2603508;54;20788;31
2022/04/10 09:46:54;;;;;;;;;;;8.50;99.90;;;;;;2603191;54;20711;31
2022/04/10 09:49:38;;;;;;;;;;;8.30;99.90;;;;;;2603561;54;19962;31
2022/04/10 09:52:15;;;;;;;;;;;8.10;99.90;;;;;;2622041;46;19934;31
2022/04/10 09:54:50;;;;;;;;;;;8.00;99.90;;;;;;2614278;46;20862;31
2022/04/10 09:57:25;;;;;;;;;;;8.00;99.90;;;;;;2602765;54;19997;31
2022/04/10 09:59:59;;;;;;;;;;;8.20;99.90;;;;;;2603268;54;20768;31
2022/04/10 10:02:35;;;;;;;;;;;8.20;99.90;;;;;;2621991;46;20736;31
2022/04/10 10:05:14;;;;;;;;;;;8.30;99.90;;;;;;2603358;54;20770;31
2022/04/10 10:07:48;;;;;;;;;;;8.30;99.90;;;;;;2612144;46;19938;31
2022/04/10 10:10:23;;;;;;;;;;;8.30;99.90;;;;;;2620934;46;20769;31
2022/04/10 10:12:58;;;;;;;;;;;8.20;99.90;;;;;;2621568;46;19934;31
2022/04/10 10:15:41;;;;;;;;;;;8.20;99.90;;;;;;2603436;54;20732;31
2022/04/10 10:18:16;;;;;;;;;;;8.50;99.90;;;;;;2602565;54;20009;31
2022/04/10 10:20:53;;;;;;;;;;;8.90;99.90;;;;;;2602643;54;19935;31
2022/04/10 10:23:31;;;;;;;;;;;9.30;99.90;;;;;;2622147;46;20742;31
2022/04/10 10:26:13;;;;;;;;;;;9.70;99.90;;;;;;2621779;46;20734;31
2022/04/10 10:29:05;;;;;;;;;;;9.90;99.90;;;;;;2603099;54;20755;31
2022/04/10 10:31:47;;;;;;;;;;;9.90;99.90;;;;;;2603119;54;20012;31
2022/04/10 10:34:26;;;;;;;;;;;9.80;99.90;;;;;;2621880;46;20824;31
2022/04/10 10:40:37;;;;;;;;;;;10.30;99.90;;;;;;2603154;54;19935;31
2022/04/10 10:43:15;;;;;;;;;;;10.20;99.90;;;;;;2621832;46;20788;31
2022/04/10 10:45:52;;;;;;;;;;;9.80;99.90;;;;;;2603144;54;20790;31
2022/04/10 10:48:46;;;;;;;;;;;9.30;99.90;;;;;;2621585;46;19942;31
2022/04/10 10:51:35;;;;;;;;;;;9.00;99.90;;;;;;2603314;54;20751;31
2022/04/10 10:54:11;;;;;;;;;;;8.70;99.90;;;;;;2603461;54;19941;31
2022/04/10 10:56:46;;;;;;;;;;;8.40;99.90;;;;;;2621991;46;19935;31
2022/04/10 10:59:25;;;;;;;;;;;8.10;99.90;;;;;;2603241;54;20879;31
2022/04/10 11:02:02;;;;;;;;;;;7.90;99.90;;;;;;2621606;46;19935;31
2022/04/10 11:04:41;;;;;;;;;;;7.80;99.90;;;;;;2603463;54;20842;31
2022/04/10 11:07:16;;;;;;;;;;;7.70;99.90;;;;;;2701095;39;20424;31
2022/04/10 11:09:52;;;;;;;;;;;8.10;99.90;;;;;;2603102;54;19977;31
2022/04/10 11:12:28;;;;;;;;;;;7.90;99.90;;;;;;2603392;54;19937;31
2022/04/10 11:15:06;;;;;;;;;;;8.20;99.90;;;;;;2621730;46;20568;31
2022/04/10 11:17:40;;;;;;;;;;;8.90;99.90;;;;;;2603052;54;20705;31
2022/04/10 11:20:19;;;;;;;;;;;8.80;99.90;;;;;;2621593;46;20779;31
2022/04/10 11:23:01;;;;;;;;;;;9.00;99.90;;;;;;2603219;54;19934;31
2022/04/10 11:25:39;;;;;;;;;;;9.30;99.90;;;;;;2602852;54;20025;31
2022/04/10 11:28:16;;;;;;;;;;;9.40;99.90;;;;;;2603077;54;20784;31
2022/04/10 11:30:51;;;;;;;;;;;9.20;99.90;;;;;;2602920;54;19935;31
2022/04/10 11:33:28;;;;;;;;;;;8.80;99.90;;;;;;2603152;54;20026;31
2022/04/10 11:36:02;;;;;;;;;;;8.30;99.90;;;;;;2621489;46;19935;31
2022/04/10 11:38:40;;;;;;;;;;;7.80;99.90;;;;;;2701957;39;22313;31
2022/04/10 11:41:18;;;;;;;;;;;7.40;99.90;;;;;;2602226;54;20544;31
2022/04/10 11:43:56;;;;;;;;;;;7.10;99.90;;;;;;2613555;46;20878;31
2022/04/10 11:46:34;;;;;;;;;;;7.00;99.90;;;;;;2602893;54;20493;31
2022/04/10 11:49:12;;;;;;;;;;;7.00;99.90;;;;;;2602354;54;19965;31
2022/04/10 11:51:53;;;;;;;;;;;7.10;99.90;;;;;;2602342;54;19942;31
2022/04/10 11:54:33;;;;;;;;;;;7.10;99.90;;;;;;2607256;46;19934;31
2022/04/10 11:57:10;;;;;;;;;;;7.40;99.90;;;;;;2612381;46;19990;31
2022/04/10 11:59:45;;;;;;;;;;;7.50;99.90;;;;;;2602399;54;20770;31
2022/04/10 12:02:23;;;;;;;;;;;7.70;99.90;;;;;;2620724;46;20772;31
2022/04/10 12:05:01;;;;;;;;;;;8.00;99.90;;;;;;2616539;46;20735;31
2022/04/10 12:07:41;;;;;;;;;;;8.00;99.90;;;;;;2603101;54;20454;31
2022/04/10 12:10:15;;;;;;;;;;;8.10;99.90;;;;;;2603191;54;19935;31
2022/04/10 12:12:56;;;;;;;;;;;8.30;99.90;;;;;;2621644;46;20013;31
2022/04/10 12:15:32;;;;;;;;;;;8.50;99.90;;;;;;2603170;54;20753;31
2022/04/10 12:18:10;;;;;;;;;;;8.80;99.90;;;;;;2720000;39;20414;31
2022/04/10 12:20:45;;;;;;;;;;;9.00;99.90;;;;;;2613063;46;20836;31
2022/04/10 12:23:20;;;;;;;;;;;9.10;99.90;;;;;;2602942;54;19935;31
2022/04/10 12:25:56;;;;;;;;;;;9.20;99.90;;;;;;2621261;46;19966;31
2022/04/10 12:28:35;;;;;;;;;;;9.30;99.90;;;;;;2606649;46;19934;31
2022/04/10 12:31:11;;;;;;;;;;;9.50;99.90;;;;;;2719697;39;20313;31
2022/04/10 12:33:46;;;;;;;;;;;9.70;99.90;;;;;;2621342;46;19943;31
2022/04/10 12:36:23;;;;;;;;;;;9.80;99.90;;;;;;2602690;54;19934;31
2022/04/10 12:39:03;;;;;;;;;;;9.90;99.90;;;;;;2620621;46;19935;31
2022/04/10 12:41:38;;;;;;;;;;;10.00;99.90;;;;;;2621225;46;19941;31
2022/04/10 12:44:16;;;;;;;;;;;10.10;99.90;;;;;;2602935;54;19943;31
2022/04/10 12:46:52;;;;;;;;;;;10.20;99.90;;;;;;2602589;54;19934;31
2022/04/10 12:49:29;;;;;;;;;;;10.50;99.90;;;;;;2601958;54;20813;31
2022/04/10 12:52:09;;;;;;;;;;;10.50;99.90;;;;;;2719018;39;20428;31
2022/04/10 12:54:44;;;;;;;;;;;10.50;99.90;;;;;;2621199;46;20010;31
2022/04/10 12:57:28;;;;;;;;;;;10.40;99.90;;;;;;2602594;54;20491;31
2022/04/10 13:00:06;;;;;;;;;;;10.40;99.90;;;;;;2602857;54;20723;31
2022/04/10 13:02:44;;;;;;;;;;;10.40;99.90;;;;;;2601969;54;19943;31
2022/04/10 13:05:21;;;;;;;;;;;10.40;99.90;;;;;;2601979;54;20698;31
2022/04/10 13:08:00;;;;;;;;;;;10.40;99.90;;;;;;2620517;46;19941;31
2022/04/10 13:10:40;;;;;;;;;;;10.20;99.90;;;;;;2601630;54;20656;31
2022/04/10 13:13:17;;;;;;;;;;;10.10;99.90;;;;;;2601756;54;19954;31
2022/04/10 13:15:56;;;;;;;;;;;9.90;99.90;;;;;;2620721;46;19949;31
2022/04/10 13:18:33;;;;;;;;;;;9.70;99.90;;;;;;2609619;46;20509;31
2022/04/10 13:21:07;;;;;;;;;;;9.60;99.90;;;;;;2700377;39;20308;31
2022/04/10 13:23:42;;;;;;;;;;;9.30;99.90;;;;;;2718519;39;21424;31
2022/04/10 13:26:25;;;;;;;;;;;9.20;99.90;;;;;;2602711;54;19941;31
2022/04/10 13:28:59;;;;;;;;;;;9.00;99.90;;;;;;2602759;54;21476;31
2022/04/10 13:31:41;;;;;;;;;;;8.80;99.90;;;;;;2620997;47;20006;31
2022/04/10 13:34:19;;;;;;;;;;;9.20;99.90;;;;;;2602659;54;19934;31
2022/04/10 13:36:55;;;;;;;;;;;8.90;99.90;;;;;;2602692;54;19935;31
2022/04/10 13:39:31;;;;;;;;;;;8.60;99.90;;;;;;2602826;54;19941;31
2022/04/10 13:42:06;;;;;;;;;;;8.60;99.90;;;;;;2602515;54;19941;31
2022/04/10 13:44:42;;;;;;;;;;;8.70;99.90;;;;;;2602511;54;19934;31
2022/04/10 13:47:16;;;;;;;;;;;8.80;99.90;;;;;;2620846;47;21892;31
2022/04/10 13:49:54;;;;;;;;;;;8.90;99.90;;;;;;2602708;54;20712;31
2022/04/10 13:52:27;;;;;;;;;;;9.00;99.90;;;;;;2602580;54;21783;31
2022/04/10 13:55:04;;;;;;;;;;;9.10;99.90;;;;;;2602679;54;19935;31
2022/04/10 13:57:38;;;;;;;;;;;9.10;99.90;;;;;;2620840;47;20494;31
2022/04/10 14:00:15;;;;;;;;;;;9.20;99.90;;;;;;2620992;47;20482;31
2022/04/10 14:02:49;;;;;;;;;;;9.20;99.90;;;;;;2772376;31;20537;31
2022/04/10 14:05:28;;;;;;;;;;;9.20;99.90;;;;;;2620909;47;20469;31
2022/04/10 14:08:02;;;;;;;;;;;9.10;99.90;;;;;;2621202;47;19935;31
2022/04/10 14:10:37;;;;;;;;;;;9.10;99.90;;;;;;2619984;47;20771;31
2022/04/10 14:13:14;;;;;;;;;;;9.10;99.90;;;;;;2700126;39;20453;31
2022/04/10 14:15:52;;;;;;;;;;;9.20;99.90;;;;;;2601818;54;19942;31
2022/04/10 14:18:29;;;;;;;;;;;9.20;99.90;;;;;;2601661;54;20021;31
2022/04/10 14:21:09;;;;;;;;;;;9.20;99.90;;;;;;2601764;54;20174;31
2022/04/10 14:23:44;;;;;;;;;;;9.20;99.90;;;;;;2602455;54;20906;31
2022/04/10 14:26:22;;;;;;;;;;;9.30;99.90;;;;;;2602453;54;19935;31
2022/04/10 14:28:56;;;;;;;;;;;9.30;99.90;;;;;;2603431;54;19961;31
2022/04/10 14:31:31;;;;;;;;;;;9.30;99.90;;;;;;2621976;46;20794;31
2022/04/10 14:34:07;;;;;;;;;;;9.20;99.90;;;;;;2602581;54;19934;31
2022/04/10 14:36:46;;;;;;;;;;;9.20;99.90;;;;;;2603172;54;19938;31
2022/04/10 14:39:24;;;;;;;;;;;9.20;99.90;;;;;;2603251;54;20017;31
2022/04/10 14:41:58;;;;;;;;;;;9.20;99.90;;;;;;2621582;46;20663;31
2022/04/10 14:44:34;;;;;;;;;;;9.00;99.90;;;;;;2603457;54;20786;31
2022/04/10 14:47:09;;;;;;;;;;;9.00;99.90;;;;;;2621837;46;19956;31
2022/04/10 14:49:46;;;;;;;;;;;8.90;99.90;;;;;;2603208;54;19934;31
2022/04/10 14:52:26;;;;;;;;;;;8.80;99.90;;;;;;2603355;54;20717;31
2022/04/10 14:55:00;;;;;;;;;;;8.80;99.90;;;;;;2603506;54;20678;31
2022/04/10 14:57:37;;;;;;;;;;;8.80;99.90;;;;;;2603214;54;20774;31
2022/04/10 15:00:13;;;;;;;;;;;8.80;99.90;;;;;;2621770;46;20669;31
2022/04/10 15:02:52;;;;;;;;;;;8.80;99.90;;;;;;2603520;54;20486;31
2022/04/10 15:05:29;;;;;;;;;;;8.60;99.90;;;;;;2620018;46;19942;31
2022/04/10 15:08:07;;;;;;;;;;;8.50;99.90;;;;;;2602643;54;20701;31
2022/04/10 15:10:46;;;;;;;;;;;8.10;99.90;;;;;;2603106;54;19938;31
2022/04/10 15:13:20;;;;;;;;;;;7.80;99.90;;;;;;2603451;54;19941;31
2022/04/10 15:15:55;;;;;;;;;;;7.60;99.90;;;;;;2603297;54;20669;31
2022/04/10 15:18:32;;;;;;;;;;;7.40;99.90;;;;;;2603215;54;19941;31
2022/04/10 15:21:09;;;;;;;;;;;7.30;99.90;;;;;;2603174;54;19941;31
2022/04/10 15:23:51;;;;;;;;;;;7.20;99.90;;;;;;2602891;54;19942;31
2022/04/10 15:28:57;;;;;;;;;;;7.00;99.90;;;;;;2701249;39;20421;31
2022/04/10 15:31:30;;;;;;;;;;;7.10;99.90;;;;;;2603212;54;21028;31
2022/04/10 15:34:05;;;;;;;;;;;7.10;99.90;;;;;;2602747;54;19934;31
2022/04/10 15:36:40;;;;;;;;;;;7.10;99.90;;;;;;2602406;54;20755;31
2022/04/10 15:39:17;;;;;;;;;;;7.20;99.90;;;;;;2602072;54;19973;31
2022/04/10 15:41:55;;;;;;;;;;;7.20;99.90;;;;;;2614544;46;19989;31
2022/04/10 15:44:32;;;;;;;;;;;7.30;99.90;;;;;;2602263;54;19934;31
2022/04/10 15:47:08;;;;;;;;;;;7.40;99.90;;;;;;2603143;54;20759;31
2022/04/10 15:49:44;;;;;;;;;;;7.40;99.90;;;;;;2603193;54;19939;31
2022/04/10 15:52:19;;;;;;;;;;;7.40;99.90;;;;;;2603015;54;19947;31
2022/04/10 15:54:55;;;;;;;;;;;7.50;99.90;;;;;;2621705;46;20705;31
2022/04/10 15:57:34;;;;;;;;;;;7.50;99.90;;;;;;2602985;54;19941;31
2022/04/10 16:00:12;;;;;;;;;;;7.50;99.90;;;;;;2602957;54;19934;31
2022/04/10 16:02:47;;;;;;;;;;;7.50;99.90;;;;;;2621553;46;19938;31
2022/04/10 16:05:22;;;;;;;;;;;7.40;99.90;;;;;;2618170;46;20850;31